Terminal Aerodrome Forecast
Issued by NWS

Home | Current Version | Previous Version | Text Only | Print | Product List | Glossary On
Versions: 1 2 3 4 5 6 7 8 9 10 11 12 13 14 15 16 17 18
835
FTUS45 KABQ 301724
TAFTCC
TAF
KTCC 301724Z 3018/3118 27008KT P6SM FEW250
     FM302100 24011G21KT P6SM SCT250
     FM310200 22010KT P6SM SCT200
     FM311700 19011G21KT P6SM SCT150 BKN200=

USA.gov is the U.S. government's official web portal to all federal, state and local government web resources and services.